ARG1644 SLVR-SABE
Flight info
| Callsign | ARG1644 |
|---|---|
| Flight time | 2h 33m |
| Altitude | 35000 |
| Route | KABOM UL404 UKDOR/N0458F370 UL404 BOLET UM784 SIS/N0454F380 UL793 GUA UZ129 PAGON PAGON9R |
| Aircraft | B738/M-SDE2E3FGHIRWXY/LB1 |
Departure
| Time | 2026-04-26 17:16 |
|---|---|
| Airport | Viru Viru International Airport (SLVR) |
Arrival
| Time | 2026-04-26 19:49 |
|---|---|
| Airport | Aeroparque Jorge Newbery (SABE) |
| Time | Latitude | Longitude | Altitude | Speed | Heading |
|---|---|---|---|---|---|
| 2026-04-26 16:52 | -17.64681 | -63.14024 | 1252 ft | 0 kts | 238° |
| 2026-04-26 17:03 | -17.64675 | -63.14013 | 1252 ft | 2 kts | 238° |
| 2026-04-26 17:04 | -17.64667 | -63.14000 | 1251 ft | 2 kts | 238° |
| 2026-04-26 17:04 | -17.64659 | -63.13987 | 1251 ft | 2 kts | 238° |
| 2026-04-26 17:04 | -17.64651 | -63.13973 | 1251 ft | 2 kts | 238° |
| 2026-04-26 17:04 | -17.64648 | -63.13958 | 1251 ft | 2 kts | 283° |
| 2026-04-26 17:05 | -17.64655 | -63.13943 | 1250 ft | 2 kts | 317° |
| 2026-04-26 17:05 | -17.64660 | -63.13939 | 1250 ft | 1 kts | 332° |
| 2026-04-26 17:05 | -17.64663 | -63.13937 | 1250 ft | 0 kts | 327° |
| 2026-04-26 17:07 | -17.64661 | -63.13939 | 1250 ft | 2 kts | 327° |
| 2026-04-26 17:08 | -17.64642 | -63.13952 | 1250 ft | 2 kts | 327° |
| 2026-04-26 17:08 | -17.64633 | -63.13958 | 1251 ft | 0 kts | 327° |
| 2026-04-26 17:08 | -17.64615 | -63.13970 | 1251 ft | 8 kts | 326° |
| 2026-04-26 17:08 | -17.64561 | -63.14006 | 1250 ft | 9 kts | 328° |
| 2026-04-26 17:09 | -17.64500 | -63.14019 | 1249 ft | 9 kts | 25° |
| 2026-04-26 17:09 | -17.64490 | -63.14006 | 1249 ft | 4 kts | 59° |
| 2026-04-26 17:09 | -17.64447 | -63.13936 | 1248 ft | 9 kts | 58° |
| 2026-04-26 17:09 | -17.64411 | -63.13877 | 1248 ft | 9 kts | 56° |
| 2026-04-26 17:10 | -17.64354 | -63.13854 | 1246 ft | 9 kts | 335° |
| 2026-04-26 17:10 | -17.64301 | -63.13890 | 1246 ft | 9 kts | 327° |
| 2026-04-26 17:10 | -17.64248 | -63.13925 | 1245 ft | 9 kts | 327° |
| 2026-04-26 17:10 | -17.64194 | -63.13961 | 1245 ft | 9 kts | 327° |
| 2026-04-26 17:11 | -17.64140 | -63.13997 | 1244 ft | 9 kts | 327° |
| 2026-04-26 17:11 | -17.64072 | -63.14043 | 1244 ft | 16 kts | 327° |
| 2026-04-26 17:11 | -17.63977 | -63.14086 | 1244 ft | 7 kts | 9° |
| 2026-04-26 17:11 | -17.63936 | -63.14046 | 1242 ft | 9 kts | 57° |
| 2026-04-26 17:12 | -17.63855 | -63.13965 | 1239 ft | 11 kts | 359° |
| 2026-04-26 17:13 | -17.63381 | -63.14274 | 1238 ft | 17 kts | 328° |
| 2026-04-26 17:14 | -17.63277 | -63.14342 | 1237 ft | 17 kts | 327° |
| 2026-04-26 17:14 | -17.63182 | -63.14452 | 1238 ft | 3 kts | 5° |
| 2026-04-26 17:14 | -17.63165 | -63.14430 | 1237 ft | 5 kts | 62° |
| 2026-04-26 17:15 | -17.63178 | -63.14409 | 1237 ft | 0 kts | 148° |
| 2026-04-26 17:15 | -17.63275 | -63.14344 | 1238 ft | 52 kts | 147° |
| 2026-04-26 17:15 | -17.63808 | -63.13987 | 1238 ft | 129 kts | 146° |
| 2026-04-26 17:16 | -17.64744 | -63.13356 | 1415 ft | 176 kts | 147° |
| 2026-04-26 17:16 | -17.65765 | -63.12634 | 2130 ft | 188 kts | 146° |
| 2026-04-26 17:16 | -17.66967 | -63.11838 | 2529 ft | 219 kts | 152° |
| 2026-04-26 17:16 | -17.68457 | -63.11140 | 2962 ft | 246 kts | 158° |
| 2026-04-26 17:17 | -17.70079 | -63.10422 | 3636 ft | 261 kts | 156° |
| 2026-04-26 17:17 | -17.71771 | -63.09542 | 4306 ft | 277 kts | 150° |
| 2026-04-26 17:17 | -17.73466 | -63.08490 | 5021 ft | 291 kts | 148° |
| 2026-04-26 17:17 | -17.75239 | -63.07384 | 5836 ft | 300 kts | 149° |
| 2026-04-26 17:18 | -17.77062 | -63.06303 | 6756 ft | 304 kts | 151° |
| 2026-04-26 17:18 | -17.78957 | -63.05226 | 7575 ft | 311 kts | 152° |
| 2026-04-26 17:18 | -17.80865 | -63.04164 | 8393 ft | 317 kts | 153° |
| 2026-04-26 17:18 | -17.82843 | -63.03070 | 9173 ft | 324 kts | 153° |
| 2026-04-26 17:19 | -17.86904 | -63.00825 | 10691 ft | 338 kts | 153° |
| 2026-04-26 17:19 | -17.89020 | -62.99654 | 11263 ft | 350 kts | 153° |
| 2026-04-26 17:19 | -17.91198 | -62.98445 | 11693 ft | 363 kts | 153° |
| 2026-04-26 17:20 | -17.93486 | -62.97172 | 12150 ft | 377 kts | 153° |
| 2026-04-26 17:20 | -17.94281 | -62.96729 | 12356 ft | 381 kts | 153° |
| 2026-04-26 17:20 | -17.98237 | -62.94521 | 13350 ft | 393 kts | 153° |
| 2026-04-26 17:20 | -18.00663 | -62.93166 | 14111 ft | 396 kts | 153° |
| 2026-04-26 17:21 | -18.03115 | -62.91804 | 14880 ft | 398 kts | 153° |
| 2026-04-26 17:21 | -18.05573 | -62.90445 | 15773 ft | 396 kts | 153° |
| 2026-04-26 17:21 | -18.07968 | -62.89128 | 16866 ft | 387 kts | 153° |
| 2026-04-26 17:21 | -18.10407 | -62.88051 | 17958 ft | 369 kts | 164° |
| 2026-04-26 17:22 | -18.12910 | -62.87529 | 18248 ft | 365 kts | 176° |
| 2026-04-26 17:22 | -18.15465 | -62.87553 | 18100 ft | 373 kts | 186° |
| 2026-04-26 17:22 | -18.18097 | -62.87904 | 17524 ft | 391 kts | 188° |
| 2026-04-26 17:22 | -18.20777 | -62.88265 | 16018 ft | 402 kts | 189° |
| 2026-04-26 17:23 | -18.23536 | -62.88622 | 12810 ft | 430 kts | 189° |
| 2026-04-26 17:23 | -18.26349 | -62.88953 | 12231 ft | 382 kts | 189° |
| 2026-04-26 17:23 | -18.28903 | -62.89230 | 10751 ft | 376 kts | 189° |
| 2026-04-26 17:23 | -18.31539 | -62.89510 | 8266 ft | 389 kts | 189° |
| 2026-04-26 17:24 | -18.34014 | -62.89769 | 8106 ft | 341 kts | 189° |
| 2026-04-26 17:24 | -18.36213 | -62.90440 | 7844 ft | 314 kts | 216° |
| 2026-04-26 17:24 | -18.37948 | -62.91735 | 7881 ft | 291 kts | 225° |
| 2026-04-26 17:24 | -18.39504 | -62.92995 | 7752 ft | 274 kts | 221° |
| 2026-04-26 17:25 | -18.41117 | -62.94107 | 7775 ft | 285 kts | 215° |
| 2026-04-26 17:25 | -18.42948 | -62.95033 | 7761 ft | 294 kts | 206° |
| 2026-04-26 17:25 | -18.44910 | -62.95736 | 7825 ft | 298 kts | 201° |
| 2026-04-26 17:25 | -18.46908 | -62.96312 | 8245 ft | 298 kts | 199° |
| 2026-04-26 17:26 | -18.48960 | -62.96869 | 8809 ft | 307 kts | 199° |
| 2026-04-26 17:26 | -18.51054 | -62.97440 | 9377 ft | 316 kts | 200° |
| 2026-04-26 17:26 | -18.53230 | -62.98046 | 9965 ft | 324 kts | 200° |
| 2026-04-26 17:26 | -18.55424 | -62.98665 | 10555 ft | 331 kts | 199° |
| 2026-04-26 17:27 | -18.57709 | -62.99314 | 10979 ft | 341 kts | 199° |
| 2026-04-26 17:27 | -18.60017 | -62.99969 | 11588 ft | 346 kts | 199° |
| 2026-04-26 17:27 | -18.62375 | -63.00638 | 12168 ft | 351 kts | 198° |
| 2026-04-26 17:27 | -18.64752 | -63.01290 | 12760 ft | 354 kts | 194° |
| 2026-04-26 17:28 | -18.67226 | -63.01491 | 13292 ft | 366 kts | 179° |
| 2026-04-26 17:28 | -18.69837 | -63.01195 | 13677 ft | 382 kts | 173° |
| 2026-04-26 17:28 | -18.72502 | -63.00703 | 14168 ft | 393 kts | 171° |
| 2026-04-26 17:28 | -18.75219 | -63.00161 | 14823 ft | 397 kts | 171° |
| 2026-04-26 17:29 | -18.77937 | -62.99639 | 15525 ft | 400 kts | 171° |
| 2026-04-26 17:29 | -18.78865 | -62.99469 | 15754 ft | 401 kts | 171° |
| 2026-04-26 17:29 | -18.83331 | -62.98704 | 16846 ft | 404 kts | 172° |
| 2026-04-26 17:29 | -18.86136 | -62.98254 | 17487 ft | 408 kts | 173° |
| 2026-04-26 17:30 | -18.88924 | -62.97818 | 18083 ft | 411 kts | 173° |
| 2026-04-26 17:30 | -18.91777 | -62.97377 | 18642 ft | 416 kts | 173° |
| 2026-04-26 17:30 | -18.94669 | -62.96932 | 19238 ft | 419 kts | 173° |
| 2026-04-26 17:30 | -18.97582 | -62.96482 | 19813 ft | 423 kts | 173° |
| 2026-04-26 17:31 | -19.00519 | -62.96027 | 20350 ft | 427 kts | 173° |
| 2026-04-26 17:31 | -19.03472 | -62.95569 | 20890 ft | 430 kts | 173° |
| 2026-04-26 17:31 | -19.06432 | -62.95108 | 21414 ft | 434 kts | 173° |
| 2026-04-26 17:31 | -19.09460 | -62.94636 | 21958 ft | 437 kts | 173° |
| 2026-04-26 17:32 | -19.12469 | -62.94167 | 22480 ft | 439 kts | 173° |
| 2026-04-26 17:32 | -19.15524 | -62.93689 | 23030 ft | 441 kts | 173° |
| 2026-04-26 17:32 | -19.18562 | -62.93214 | 23534 ft | 444 kts | 173° |
| 2026-04-26 17:32 | -19.21661 | -62.92730 | 24040 ft | 447 kts | 173° |
| 2026-04-26 17:33 | -19.24751 | -62.92246 | 24575 ft | 449 kts | 173° |
| 2026-04-26 17:33 | -19.27862 | -62.91760 | 25055 ft | 452 kts | 173° |
| 2026-04-26 17:33 | -19.30979 | -62.91272 | 25535 ft | 455 kts | 173° |
| 2026-04-26 17:34 | -19.37294 | -62.90283 | 26466 ft | 461 kts | 173° |
| 2026-04-26 17:34 | -19.40467 | -62.89786 | 26932 ft | 463 kts | 173° |
| 2026-04-26 17:34 | -19.43679 | -62.89282 | 27389 ft | 466 kts | 173° |
| 2026-04-26 17:34 | -19.46907 | -62.88776 | 27837 ft | 468 kts | 173° |
| 2026-04-26 17:35 | -19.50141 | -62.88268 | 28262 ft | 471 kts | 173° |
| 2026-04-26 17:35 | -19.53368 | -62.87762 | 28669 ft | 473 kts | 173° |
| 2026-04-26 17:35 | -19.56661 | -62.87244 | 29164 ft | 474 kts | 173° |
| 2026-04-26 17:35 | -19.59919 | -62.86731 | 29819 ft | 470 kts | 173° |
| 2026-04-26 17:36 | -19.63120 | -62.86227 | 30345 ft | 470 kts | 173° |
| 2026-04-26 17:36 | -19.66390 | -62.85712 | 30852 ft | 469 kts | 173° |
| 2026-04-26 17:36 | -19.69623 | -62.85203 | 31373 ft | 468 kts | 173° |
| 2026-04-26 17:36 | -19.72846 | -62.84695 | 31876 ft | 467 kts | 173° |
| 2026-04-26 17:37 | -19.76043 | -62.84192 | 32327 ft | 466 kts | 174° |
| 2026-04-26 17:37 | -19.79295 | -62.83679 | 32789 ft | 466 kts | 174° |
| 2026-04-26 17:37 | -19.82540 | -62.83168 | 33291 ft | 465 kts | 174° |
| 2026-04-26 17:38 | -19.88933 | -62.82162 | 34222 ft | 464 kts | 174° |
| 2026-04-26 17:38 | -19.92121 | -62.81660 | 34683 ft | 463 kts | 174° |
| 2026-04-26 17:38 | -19.95318 | -62.81155 | 34980 ft | 464 kts | 174° |
| 2026-04-26 17:38 | -19.98523 | -62.80650 | 34979 ft | 466 kts | 174° |
| 2026-04-26 17:39 | -20.04914 | -62.79639 | 34971 ft | 461 kts | 174° |
| 2026-04-26 17:39 | -20.11316 | -62.78626 | 34974 ft | 463 kts | 174° |
| 2026-04-26 17:40 | -20.15556 | -62.77955 | 34973 ft | 463 kts | 174° |
| 2026-04-26 17:40 | -20.24080 | -62.76605 | 34968 ft | 463 kts | 174° |
| 2026-04-26 17:41 | -20.30437 | -62.75597 | 34973 ft | 462 kts | 174° |
| 2026-04-26 17:41 | -20.36860 | -62.74578 | 34972 ft | 462 kts | 174° |
| 2026-04-26 17:42 | -20.43234 | -62.73566 | 34970 ft | 462 kts | 174° |
| 2026-04-26 17:42 | -20.48515 | -62.72728 | 34973 ft | 462 kts | 174° |
| 2026-04-26 17:43 | -20.55959 | -62.71544 | 34971 ft | 462 kts | 174° |
| 2026-04-26 17:43 | -20.62380 | -62.70522 | 34970 ft | 462 kts | 174° |
| 2026-04-26 17:44 | -20.68750 | -62.69507 | 34969 ft | 462 kts | 174° |
| 2026-04-26 17:44 | -20.75151 | -62.68486 | 34963 ft | 462 kts | 174° |
| 2026-04-26 17:45 | -20.81482 | -62.67476 | 34964 ft | 462 kts | 174° |
| 2026-04-26 17:45 | -20.87867 | -62.66457 | 34964 ft | 461 kts | 174° |
| 2026-04-26 17:46 | -20.94256 | -62.65435 | 34959 ft | 462 kts | 174° |
| 2026-04-26 17:46 | -21.00647 | -62.64412 | 34958 ft | 462 kts | 174° |
| 2026-04-26 17:47 | -21.04927 | -62.63727 | 34960 ft | 462 kts | 174° |
| 2026-04-26 17:47 | -21.13451 | -62.62361 | 34957 ft | 462 kts | 175° |
| 2026-04-26 17:48 | -21.19848 | -62.61334 | 34957 ft | 462 kts | 175° |
| 2026-04-26 17:48 | -21.26193 | -62.60316 | 34958 ft | 462 kts | 175° |
| 2026-04-26 17:49 | -21.32589 | -62.59290 | 34955 ft | 463 kts | 175° |
| 2026-04-26 17:49 | -21.38987 | -62.58261 | 34953 ft | 464 kts | 175° |
| 2026-04-26 17:50 | -21.45372 | -62.57232 | 34957 ft | 462 kts | 175° |
| 2026-04-26 17:50 | -21.51769 | -62.56200 | 34951 ft | 463 kts | 175° |
| 2026-04-26 17:51 | -21.58170 | -62.55168 | 34947 ft | 464 kts | 175° |
| 2026-04-26 17:51 | -21.64554 | -62.54139 | 34945 ft | 464 kts | 175° |
| 2026-04-26 17:52 | -21.70933 | -62.53108 | 34946 ft | 464 kts | 175° |
| 2026-04-26 17:52 | -21.77368 | -62.52068 | 34943 ft | 465 kts | 175° |
| 2026-04-26 17:53 | -21.83747 | -62.51036 | 34942 ft | 464 kts | 175° |
| 2026-04-26 17:54 | -21.93353 | -62.49479 | 34942 ft | 465 kts | 175° |
| 2026-04-26 17:54 | -21.99807 | -62.48433 | 34941 ft | 466 kts | 175° |
| 2026-04-26 17:55 | -22.06208 | -62.47393 | 34941 ft | 464 kts | 175° |
| 2026-04-26 17:55 | -22.12681 | -62.46341 | 34938 ft | 466 kts | 175° |
| 2026-04-26 17:56 | -22.19105 | -62.45296 | 34937 ft | 465 kts | 175° |
| 2026-04-26 17:57 | -22.31910 | -62.43211 | 34931 ft | 466 kts | 176° |
| 2026-04-26 17:57 | -22.38358 | -62.41986 | 34924 ft | 468 kts | 170° |
| 2026-04-26 17:58 | -22.50337 | -62.35919 | 34923 ft | 477 kts | 153° |
| 2026-04-26 17:59 | -22.58864 | -62.30354 | 34922 ft | 479 kts | 152° |
| 2026-04-26 17:59 | -22.64626 | -62.26622 | 34920 ft | 479 kts | 153° |
| 2026-04-26 18:00 | -22.70369 | -62.22947 | 34923 ft | 480 kts | 153° |
| 2026-04-26 18:00 | -22.76170 | -62.19259 | 34919 ft | 479 kts | 153° |
| 2026-04-26 18:01 | -22.81938 | -62.15596 | 34917 ft | 478 kts | 153° |
| 2026-04-26 18:01 | -22.87665 | -62.11961 | 34922 ft | 479 kts | 153° |
| 2026-04-26 18:02 | -22.91537 | -62.09501 | 34918 ft | 479 kts | 154° |
| 2026-04-26 18:02 | -22.99231 | -62.04607 | 34925 ft | 481 kts | 154° |
| 2026-04-26 18:03 | -23.05016 | -62.00921 | 34938 ft | 479 kts | 154° |
| 2026-04-26 18:03 | -23.10780 | -61.97246 | 34938 ft | 481 kts | 154° |
| 2026-04-26 18:04 | -23.16574 | -61.93549 | 34939 ft | 481 kts | 154° |
| 2026-04-26 18:05 | -23.25253 | -61.88002 | 34934 ft | 483 kts | 154° |
| 2026-04-26 18:05 | -23.31047 | -61.84294 | 34936 ft | 481 kts | 154° |
| 2026-04-26 18:06 | -23.36802 | -61.80607 | 34940 ft | 483 kts | 154° |
| 2026-04-26 18:06 | -23.42623 | -61.76876 | 34936 ft | 485 kts | 154° |
| 2026-04-26 18:07 | -23.48449 | -61.73136 | 34933 ft | 484 kts | 154° |
| 2026-04-26 18:07 | -23.54031 | -61.69549 | 34927 ft | 485 kts | 154° |
| 2026-04-26 18:08 | -23.59872 | -61.65793 | 34924 ft | 490 kts | 154° |
| 2026-04-26 18:08 | -23.65871 | -61.61941 | 34920 ft | 503 kts | 154° |
| 2026-04-26 18:09 | -23.71987 | -61.58005 | 34925 ft | 511 kts | 154° |
| 2026-04-26 18:09 | -23.78145 | -61.54027 | 34927 ft | 509 kts | 154° |
| 2026-04-26 18:10 | -23.84266 | -61.50064 | 34921 ft | 511 kts | 154° |
| 2026-04-26 18:10 | -23.90437 | -61.46069 | 34915 ft | 510 kts | 154° |
| 2026-04-26 18:11 | -23.96553 | -61.42110 | 34909 ft | 513 kts | 155° |
| 2026-04-26 18:11 | -24.02721 | -61.38115 | 34904 ft | 513 kts | 154° |
| 2026-04-26 18:12 | -24.08883 | -61.34114 | 34905 ft | 513 kts | 154° |
| 2026-04-26 18:12 | -24.15037 | -61.30114 | 34904 ft | 513 kts | 155° |
| 2026-04-26 18:13 | -24.21210 | -61.26061 | 34899 ft | 515 kts | 154° |
| 2026-04-26 18:13 | -24.27308 | -61.22026 | 34902 ft | 514 kts | 154° |
| 2026-04-26 18:14 | -24.33449 | -61.17959 | 34903 ft | 516 kts | 154° |
| 2026-04-26 18:14 | -24.39631 | -61.13864 | 34905 ft | 515 kts | 154° |
| 2026-04-26 18:15 | -24.45763 | -61.09798 | 34907 ft | 515 kts | 154° |
| 2026-04-26 18:15 | -24.51909 | -61.05722 | 34908 ft | 516 kts | 154° |
| 2026-04-26 18:16 | -24.58092 | -61.01617 | 34908 ft | 514 kts | 155° |
| 2026-04-26 18:16 | -24.67335 | -60.95473 | 34907 ft | 515 kts | 155° |
| 2026-04-26 18:17 | -24.73459 | -60.91396 | 34905 ft | 516 kts | 155° |
| 2026-04-26 18:17 | -24.79611 | -60.87297 | 34907 ft | 515 kts | 155° |
| 2026-04-26 18:18 | -24.85751 | -60.83200 | 34912 ft | 517 kts | 155° |
| 2026-04-26 18:18 | -24.91911 | -60.79083 | 34911 ft | 514 kts | 155° |
| 2026-04-26 18:19 | -24.98004 | -60.75025 | 34915 ft | 514 kts | 156° |
| 2026-04-26 18:19 | -25.04178 | -60.70945 | 34912 ft | 514 kts | 156° |
| 2026-04-26 18:20 | -25.10353 | -60.66867 | 34910 ft | 517 kts | 156° |
| 2026-04-26 18:20 | -25.14477 | -60.64133 | 34912 ft | 516 kts | 156° |
| 2026-04-26 18:21 | -25.22666 | -60.58697 | 34909 ft | 517 kts | 156° |
| 2026-04-26 18:21 | -25.28843 | -60.54586 | 34913 ft | 517 kts | 156° |
| 2026-04-26 18:22 | -25.35031 | -60.50462 | 34910 ft | 515 kts | 156° |
| 2026-04-26 18:22 | -25.41195 | -60.46354 | 34910 ft | 517 kts | 156° |
| 2026-04-26 18:23 | -25.47371 | -60.42234 | 34911 ft | 517 kts | 156° |
| 2026-04-26 18:23 | -25.53512 | -60.38131 | 34914 ft | 518 kts | 156° |
| 2026-04-26 18:24 | -25.59722 | -60.33977 | 34913 ft | 520 kts | 156° |
| 2026-04-26 18:24 | -25.65911 | -60.29832 | 34914 ft | 521 kts | 156° |
| 2026-04-26 18:25 | -25.72129 | -60.25657 | 34914 ft | 519 kts | 156° |
| 2026-04-26 18:25 | -25.78303 | -60.21513 | 34913 ft | 520 kts | 156° |
| 2026-04-26 18:26 | -25.84521 | -60.17330 | 34915 ft | 520 kts | 156° |
| 2026-04-26 18:26 | -25.90691 | -60.13173 | 34914 ft | 522 kts | 156° |
| 2026-04-26 18:27 | -25.96926 | -60.08973 | 34915 ft | 521 kts | 156° |
| 2026-04-26 18:27 | -26.03109 | -60.04798 | 34916 ft | 522 kts | 156° |
| 2026-04-26 18:28 | -26.09364 | -60.00574 | 34915 ft | 522 kts | 156° |
| 2026-04-26 18:28 | -26.15616 | -59.96346 | 34909 ft | 523 kts | 156° |
| 2026-04-26 18:29 | -26.21826 | -59.92138 | 34903 ft | 525 kts | 156° |
| 2026-04-26 18:29 | -26.28081 | -59.87892 | 34903 ft | 523 kts | 156° |
| 2026-04-26 18:30 | -26.34299 | -59.83667 | 34906 ft | 524 kts | 157° |
| 2026-04-26 18:30 | -26.40534 | -59.79425 | 34907 ft | 525 kts | 157° |
| 2026-04-26 18:31 | -26.46812 | -59.75155 | 34911 ft | 526 kts | 157° |
| 2026-04-26 18:31 | -26.53044 | -59.70905 | 34905 ft | 526 kts | 157° |
| 2026-04-26 18:32 | -26.59312 | -59.66625 | 34899 ft | 526 kts | 157° |
| 2026-04-26 18:32 | -26.65563 | -59.62350 | 34901 ft | 525 kts | 158° |
| 2026-04-26 18:33 | -26.71832 | -59.58058 | 34902 ft | 526 kts | 157° |
| 2026-04-26 18:33 | -26.78051 | -59.53784 | 34901 ft | 527 kts | 157° |
| 2026-04-26 18:34 | -26.84303 | -59.49356 | 34902 ft | 529 kts | 156° |
| 2026-04-26 18:34 | -26.90554 | -59.44845 | 34901 ft | 528 kts | 156° |
| 2026-04-26 18:35 | -26.96764 | -59.40356 | 34900 ft | 532 kts | 156° |
| 2026-04-26 18:35 | -27.02982 | -59.35868 | 34899 ft | 527 kts | 156° |
| 2026-04-26 18:36 | -27.09048 | -59.31502 | 34897 ft | 532 kts | 156° |
| 2026-04-26 18:36 | -27.15240 | -59.27037 | 34899 ft | 528 kts | 156° |
| 2026-04-26 18:37 | -27.21484 | -59.22540 | 34903 ft | 532 kts | 156° |
| 2026-04-26 18:37 | -27.27774 | -59.17998 | 34905 ft | 532 kts | 156° |
| 2026-04-26 18:38 | -27.34022 | -59.13481 | 34908 ft | 531 kts | 156° |
| 2026-04-26 18:38 | -27.40320 | -59.09032 | 34920 ft | 528 kts | 159° |
| 2026-04-26 18:39 | -27.46898 | -59.05911 | 34928 ft | 500 kts | 178° |
| 2026-04-26 18:39 | -27.50313 | -59.05215 | 34926 ft | 489 kts | 184° |
| 2026-04-26 18:39 | -27.53711 | -59.04792 | 34924 ft | 485 kts | 187° |
| 2026-04-26 18:40 | -27.60421 | -59.04281 | 34925 ft | 482 kts | 189° |
| 2026-04-26 18:40 | -27.67170 | -59.03882 | 34923 ft | 483 kts | 189° |
| 2026-04-26 18:41 | -27.73897 | -59.03446 | 34924 ft | 483 kts | 189° |
| 2026-04-26 18:41 | -27.80606 | -59.02980 | 34926 ft | 479 kts | 189° |
| 2026-04-26 18:42 | -27.87305 | -59.02489 | 34926 ft | 484 kts | 189° |
| 2026-04-26 18:42 | -27.94028 | -59.01987 | 34928 ft | 484 kts | 189° |
| 2026-04-26 18:43 | -28.00722 | -59.01476 | 34929 ft | 482 kts | 189° |
| 2026-04-26 18:43 | -28.07423 | -59.00966 | 34931 ft | 483 kts | 189° |
| 2026-04-26 18:44 | -28.14116 | -59.00457 | 34930 ft | 483 kts | 189° |
| 2026-04-26 18:44 | -28.20843 | -58.99946 | 34932 ft | 484 kts | 189° |
| 2026-04-26 18:45 | -28.27550 | -58.99433 | 34933 ft | 484 kts | 189° |
| 2026-04-26 18:45 | -28.34283 | -58.98920 | 34933 ft | 483 kts | 189° |
| 2026-04-26 18:46 | -28.41023 | -58.98399 | 34933 ft | 481 kts | 189° |
| 2026-04-26 18:46 | -28.47744 | -58.97884 | 34933 ft | 487 kts | 190° |
| 2026-04-26 18:47 | -28.54453 | -58.97366 | 34934 ft | 481 kts | 190° |
| 2026-04-26 18:47 | -28.61191 | -58.96847 | 34932 ft | 486 kts | 190° |
| 2026-04-26 18:48 | -28.67961 | -58.96327 | 34933 ft | 486 kts | 190° |
| 2026-04-26 18:48 | -28.74735 | -58.95803 | 34932 ft | 484 kts | 190° |
| 2026-04-26 18:49 | -28.81445 | -58.95279 | 34933 ft | 484 kts | 190° |
| 2026-04-26 18:49 | -28.88202 | -58.94758 | 34930 ft | 487 kts | 190° |
| 2026-04-26 18:50 | -28.94960 | -58.94231 | 34932 ft | 484 kts | 190° |
| 2026-04-26 18:50 | -29.01767 | -58.93701 | 34931 ft | 487 kts | 190° |
| 2026-04-26 18:51 | -29.08509 | -58.93175 | 34933 ft | 487 kts | 190° |
| 2026-04-26 18:51 | -29.15291 | -58.92641 | 34929 ft | 487 kts | 190° |
| 2026-04-26 18:52 | -29.20954 | -58.92194 | 34932 ft | 486 kts | 190° |
| 2026-04-26 18:52 | -29.28822 | -58.91581 | 34933 ft | 489 kts | 190° |
| 2026-04-26 18:53 | -29.35634 | -58.91048 | 34932 ft | 490 kts | 190° |
| 2026-04-26 18:53 | -29.42453 | -58.90512 | 34935 ft | 490 kts | 190° |
| 2026-04-26 18:54 | -29.49233 | -58.89975 | 34942 ft | 489 kts | 191° |
| 2026-04-26 18:54 | -29.56080 | -58.89434 | 34938 ft | 488 kts | 190° |
| 2026-04-26 18:55 | -29.62803 | -58.88897 | 34943 ft | 490 kts | 191° |
| 2026-04-26 18:55 | -29.69625 | -58.88369 | 34940 ft | 491 kts | 191° |
| 2026-04-26 18:56 | -29.76431 | -58.87833 | 34947 ft | 490 kts | 191° |
| 2026-04-26 18:56 | -29.83271 | -58.87298 | 34947 ft | 489 kts | 191° |
| 2026-04-26 18:57 | -29.87817 | -58.86939 | 34947 ft | 490 kts | 191° |
| 2026-04-26 18:57 | -29.96898 | -58.86227 | 34951 ft | 490 kts | 191° |
| 2026-04-26 18:58 | -30.03698 | -58.85695 | 34948 ft | 492 kts | 191° |
| 2026-04-26 18:58 | -30.10493 | -58.85155 | 34948 ft | 489 kts | 191° |
| 2026-04-26 18:59 | -30.17224 | -58.84630 | 34945 ft | 492 kts | 191° |
| 2026-04-26 18:59 | -30.24083 | -58.84087 | 34955 ft | 489 kts | 191° |
| 2026-04-26 19:00 | -30.30872 | -58.83546 | 34950 ft | 491 kts | 190° |
| 2026-04-26 19:00 | -30.37668 | -58.83008 | 34956 ft | 487 kts | 190° |
| 2026-04-26 19:01 | -30.44433 | -58.82465 | 34957 ft | 488 kts | 191° |
| 2026-04-26 19:01 | -30.51199 | -58.81935 | 34958 ft | 492 kts | 191° |
| 2026-04-26 19:02 | -30.58032 | -58.81361 | 34960 ft | 486 kts | 190° |
| 2026-04-26 19:02 | -30.62532 | -58.80972 | 34959 ft | 492 kts | 190° |
| 2026-04-26 19:03 | -30.71619 | -58.80184 | 34962 ft | 490 kts | 190° |
| 2026-04-26 19:03 | -30.78412 | -58.79597 | 34964 ft | 487 kts | 190° |
| 2026-04-26 19:04 | -30.85135 | -58.79013 | 34961 ft | 484 kts | 190° |
| 2026-04-26 19:04 | -30.91899 | -58.78433 | 34965 ft | 487 kts | 190° |
| 2026-04-26 19:05 | -31.01982 | -58.77605 | 34966 ft | 485 kts | 190° |
| 2026-04-26 19:06 | -31.08737 | -58.77080 | 34968 ft | 485 kts | 190° |
| 2026-04-26 19:06 | -31.15488 | -58.76551 | 34967 ft | 483 kts | 190° |
| 2026-04-26 19:07 | -31.22189 | -58.76020 | 34971 ft | 485 kts | 190° |
| 2026-04-26 19:07 | -31.28934 | -58.75491 | 34970 ft | 483 kts | 190° |
| 2026-04-26 19:08 | -31.35585 | -58.74957 | 34963 ft | 481 kts | 190° |
| 2026-04-26 19:08 | -31.42314 | -58.74424 | 34968 ft | 485 kts | 190° |
| 2026-04-26 19:09 | -31.49045 | -58.73891 | 34969 ft | 482 kts | 189° |
| 2026-04-26 19:09 | -31.55786 | -58.73353 | 34965 ft | 484 kts | 189° |
| 2026-04-26 19:10 | -31.62497 | -58.72807 | 34966 ft | 480 kts | 189° |
| 2026-04-26 19:10 | -31.69152 | -58.72274 | 34965 ft | 480 kts | 189° |
| 2026-04-26 19:11 | -31.75859 | -58.71736 | 34960 ft | 482 kts | 189° |
| 2026-04-26 19:11 | -31.82504 | -58.71201 | 34960 ft | 480 kts | 189° |
| 2026-04-26 19:12 | -31.89161 | -58.70661 | 34897 ft | 478 kts | 189° |
| 2026-04-26 19:12 | -31.92487 | -58.70397 | 35039 ft | 483 kts | 189° |
| 2026-04-26 19:12 | -31.95819 | -58.70133 | 34893 ft | 478 kts | 189° |
| 2026-04-26 19:13 | -32.02521 | -58.69590 | 34953 ft | 480 kts | 189° |
| 2026-04-26 19:13 | -32.09137 | -58.69051 | 34973 ft | 479 kts | 189° |
| 2026-04-26 19:14 | -32.15829 | -58.68512 | 34956 ft | 479 kts | 189° |
| 2026-04-26 19:14 | -32.22466 | -58.67978 | 34998 ft | 480 kts | 189° |
| 2026-04-26 19:15 | -32.29091 | -58.67429 | 34956 ft | 478 kts | 189° |
| 2026-04-26 19:15 | -32.35735 | -58.66892 | 34978 ft | 477 kts | 189° |
| 2026-04-26 19:16 | -32.42363 | -58.66340 | 34982 ft | 477 kts | 189° |
| 2026-04-26 19:16 | -32.48986 | -58.65787 | 34971 ft | 478 kts | 189° |
| 2026-04-26 19:17 | -32.55616 | -58.65234 | 34970 ft | 477 kts | 189° |
| 2026-04-26 19:17 | -32.62257 | -58.64677 | 34969 ft | 476 kts | 189° |
| 2026-04-26 19:18 | -32.68835 | -58.64123 | 34962 ft | 475 kts | 189° |
| 2026-04-26 19:18 | -32.75488 | -58.63568 | 34956 ft | 476 kts | 189° |
| 2026-04-26 19:19 | -32.82052 | -58.63004 | 34949 ft | 468 kts | 189° |
| 2026-04-26 19:19 | -32.88594 | -58.62466 | 34937 ft | 476 kts | 189° |
| 2026-04-26 19:20 | -32.95219 | -58.61914 | 34932 ft | 476 kts | 189° |
| 2026-04-26 19:20 | -33.01783 | -58.61598 | 34929 ft | 464 kts | 194° |
| 2026-04-26 19:21 | -33.08207 | -58.62053 | 34933 ft | 458 kts | 198° |
| 2026-04-26 19:21 | -33.14350 | -58.62794 | 34931 ft | 457 kts | 199° |
| 2026-04-26 19:22 | -33.20554 | -58.63579 | 34937 ft | 455 kts | 199° |
| 2026-04-26 19:22 | -33.26876 | -58.64362 | 34935 ft | 449 kts | 199° |
| 2026-04-26 19:22 | -33.29956 | -58.64716 | 34891 ft | 435 kts | 199° |
| 2026-04-26 19:23 | -33.32909 | -58.65050 | 34636 ft | 427 kts | 199° |
| 2026-04-26 19:23 | -33.35858 | -58.65392 | 34187 ft | 426 kts | 200° |
| 2026-04-26 19:23 | -33.38841 | -58.65751 | 33441 ft | 428 kts | 200° |
| 2026-04-26 19:23 | -33.41782 | -58.66112 | 32703 ft | 430 kts | 199° |
| 2026-04-26 19:24 | -33.44784 | -58.66478 | 31942 ft | 431 kts | 199° |
| 2026-04-26 19:24 | -33.47733 | -58.66831 | 31390 ft | 427 kts | 199° |
| 2026-04-26 19:24 | -33.53611 | -58.67514 | 30266 ft | 420 kts | 199° |
| 2026-04-26 19:25 | -33.56489 | -58.67847 | 29669 ft | 415 kts | 198° |
| 2026-04-26 19:25 | -33.57446 | -58.67957 | 29476 ft | 414 kts | 199° |
| 2026-04-26 19:25 | -33.62203 | -58.68507 | 28528 ft | 406 kts | 199° |
| 2026-04-26 19:25 | -33.64993 | -58.68830 | 27978 ft | 401 kts | 199° |
| 2026-04-26 19:26 | -33.67762 | -58.69152 | 27426 ft | 397 kts | 199° |
| 2026-04-26 19:26 | -33.70503 | -58.69473 | 26883 ft | 393 kts | 199° |
| 2026-04-26 19:26 | -33.73192 | -58.69789 | 26341 ft | 388 kts | 199° |
| 2026-04-26 19:26 | -33.75874 | -58.70103 | 25805 ft | 384 kts | 199° |
| 2026-04-26 19:27 | -33.78519 | -58.70415 | 25265 ft | 380 kts | 199° |
| 2026-04-26 19:27 | -33.81117 | -58.70721 | 24741 ft | 376 kts | 199° |
| 2026-04-26 19:27 | -33.83734 | -58.71030 | 24213 ft | 371 kts | 200° |
| 2026-04-26 19:27 | -33.86291 | -58.71333 | 23694 ft | 367 kts | 200° |
| 2026-04-26 19:28 | -33.88820 | -58.71631 | 23179 ft | 363 kts | 200° |
| 2026-04-26 19:28 | -33.91307 | -58.71925 | 22679 ft | 359 kts | 200° |
| 2026-04-26 19:28 | -33.93801 | -58.72216 | 22144 ft | 356 kts | 200° |
| 2026-04-26 19:28 | -33.96209 | -58.72476 | 21895 ft | 346 kts | 200° |
| 2026-04-26 19:29 | -33.98621 | -58.72732 | 21348 ft | 344 kts | 200° |
| 2026-04-26 19:29 | -34.01001 | -58.72992 | 20802 ft | 342 kts | 200° |
| 2026-04-26 19:29 | -34.03364 | -58.73251 | 20337 ft | 338 kts | 200° |
| 2026-04-26 19:29 | -34.05685 | -58.73503 | 19860 ft | 334 kts | 200° |
| 2026-04-26 19:30 | -34.07988 | -58.73750 | 19417 ft | 329 kts | 200° |
| 2026-04-26 19:30 | -34.10287 | -58.73999 | 18911 ft | 326 kts | 201° |
| 2026-04-26 19:30 | -34.12523 | -58.74248 | 18340 ft | 326 kts | 201° |
| 2026-04-26 19:30 | -34.13267 | -58.74332 | 18127 ft | 326 kts | 200° |
| 2026-04-26 19:31 | -34.17059 | -58.74757 | 17246 ft | 323 kts | 200° |
| 2026-04-26 19:31 | -34.19286 | -58.74999 | 16762 ft | 319 kts | 200° |
| 2026-04-26 19:31 | -34.21479 | -58.75236 | 16300 ft | 316 kts | 199° |
| 2026-04-26 19:31 | -34.23645 | -58.75470 | 15852 ft | 312 kts | 199° |
| 2026-04-26 19:32 | -34.25835 | -58.75709 | 15338 ft | 309 kts | 199° |
| 2026-04-26 19:32 | -34.27955 | -58.75940 | 14915 ft | 304 kts | 198° |
| 2026-04-26 19:32 | -34.30083 | -58.76174 | 14470 ft | 302 kts | 198° |
| 2026-04-26 19:32 | -34.32160 | -58.76402 | 14026 ft | 300 kts | 198° |
| 2026-04-26 19:33 | -34.34217 | -58.76630 | 13591 ft | 299 kts | 197° |
| 2026-04-26 19:33 | -34.36314 | -58.76866 | 13133 ft | 302 kts | 196° |
| 2026-04-26 19:33 | -34.38404 | -58.77099 | 12680 ft | 302 kts | 196° |
| 2026-04-26 19:33 | -34.40503 | -58.77325 | 12231 ft | 300 kts | 196° |
| 2026-04-26 19:34 | -34.42582 | -58.77550 | 11781 ft | 297 kts | 195° |
| 2026-04-26 19:34 | -34.44639 | -58.77774 | 11341 ft | 295 kts | 195° |
| 2026-04-26 19:34 | -34.46701 | -58.78000 | 10886 ft | 292 kts | 194° |
| 2026-04-26 19:34 | -34.48713 | -58.78220 | 10499 ft | 288 kts | 194° |
| 2026-04-26 19:35 | -34.50702 | -58.78434 | 10274 ft | 279 kts | 194° |
| 2026-04-26 19:35 | -34.52599 | -58.78607 | 10161 ft | 269 kts | 191° |
| 2026-04-26 19:35 | -34.54454 | -58.78385 | 10053 ft | 271 kts | 173° |
| 2026-04-26 19:35 | -34.56124 | -58.77247 | 9807 ft | 287 kts | 146° |
| 2026-04-26 19:36 | -34.57334 | -58.75238 | 9445 ft | 303 kts | 121° |
| 2026-04-26 19:36 | -34.57598 | -58.74463 | 9339 ft | 304 kts | 117° |
| 2026-04-26 19:36 | -34.58711 | -58.70390 | 8722 ft | 305 kts | 114° |
| 2026-04-26 19:36 | -34.59374 | -58.67911 | 8357 ft | 304 kts | 115° |
| 2026-04-26 19:37 | -34.60032 | -58.65492 | 8001 ft | 302 kts | 114° |
| 2026-04-26 19:37 | -34.60699 | -58.63066 | 7636 ft | 301 kts | 114° |
| 2026-04-26 19:37 | -34.61359 | -58.60658 | 7257 ft | 301 kts | 115° |
| 2026-04-26 19:37 | -34.62008 | -58.58249 | 6876 ft | 301 kts | 114° |
| 2026-04-26 19:38 | -34.62648 | -58.55835 | 6515 ft | 300 kts | 114° |
| 2026-04-26 19:38 | -34.63283 | -58.53434 | 6143 ft | 298 kts | 114° |
| 2026-04-26 19:38 | -34.63909 | -58.51067 | 5805 ft | 287 kts | 114° |
| 2026-04-26 19:38 | -34.64503 | -58.48817 | 5478 ft | 281 kts | 114° |
| 2026-04-26 19:39 | -34.65125 | -58.46503 | 5168 ft | 287 kts | 115° |
| 2026-04-26 19:39 | -34.65742 | -58.44204 | 4761 ft | 288 kts | 114° |
| 2026-04-26 19:39 | -34.66355 | -58.41901 | 4427 ft | 287 kts | 114° |
| 2026-04-26 19:39 | -34.66968 | -58.39587 | 4082 ft | 286 kts | 114° |
| 2026-04-26 19:40 | -34.67580 | -58.37278 | 3709 ft | 287 kts | 114° |
| 2026-04-26 19:40 | -34.68185 | -58.34997 | 3378 ft | 285 kts | 114° |
| 2026-04-26 19:40 | -34.68586 | -58.33480 | 3209 ft | 282 kts | 114° |
| 2026-04-26 19:40 | -34.69376 | -58.30479 | 2903 ft | 275 kts | 113° |
| 2026-04-26 19:41 | -34.69960 | -58.28301 | 2880 ft | 262 kts | 117° |
| 2026-04-26 19:41 | -34.70631 | -58.26304 | 2884 ft | 254 kts | 119° |
| 2026-04-26 19:41 | -34.71180 | -58.24290 | 2930 ft | 250 kts | 107° |
| 2026-04-26 19:41 | -34.71281 | -58.23558 | 2994 ft | 259 kts | 101° |
| 2026-04-26 19:42 | -34.70909 | -58.20148 | 2994 ft | 232 kts | 66° |
| 2026-04-26 19:42 | -34.70031 | -58.18637 | 2987 ft | 205 kts | 34° |
| 2026-04-26 19:42 | -34.68889 | -58.17747 | 2995 ft | 192 kts | 16° |
| 2026-04-26 19:42 | -34.67659 | -58.17210 | 2990 ft | 178 kts | 356° |
| 2026-04-26 19:43 | -34.66466 | -58.17214 | 3003 ft | 166 kts | 336° |
| 2026-04-26 19:43 | -34.65376 | -58.17576 | 3005 ft | 155 kts | 324° |
| 2026-04-26 19:43 | -34.64437 | -58.18186 | 2961 ft | 151 kts | 309° |
| 2026-04-26 19:43 | -34.63705 | -58.19042 | 2800 ft | 139 kts | 296° |
| 2026-04-26 19:44 | -34.63176 | -58.19992 | 2674 ft | 134 kts | 287° |
| 2026-04-26 19:44 | -34.62833 | -58.21006 | 2592 ft | 129 kts | 276° |
| 2026-04-26 19:44 | -34.62689 | -58.22048 | 2572 ft | 128 kts | 268° |
| 2026-04-26 19:44 | -34.62711 | -58.23138 | 2519 ft | 131 kts | 258° |
| 2026-04-26 19:45 | -34.62900 | -58.24236 | 2503 ft | 135 kts | 254° |
| 2026-04-26 19:45 | -34.63089 | -58.25368 | 2429 ft | 136 kts | 256° |
| 2026-04-26 19:45 | -34.63238 | -58.26454 | 2346 ft | 127 kts | 259° |
| 2026-04-26 19:45 | -34.63271 | -58.27525 | 2263 ft | 129 kts | 271° |
| 2026-04-26 19:46 | -34.63025 | -58.28578 | 2205 ft | 130 kts | 284° |
| 2026-04-26 19:46 | -34.62573 | -58.29573 | 2151 ft | 138 kts | 291° |
| 2026-04-26 19:46 | -34.62048 | -58.30554 | 2037 ft | 139 kts | 292° |
| 2026-04-26 19:46 | -34.61514 | -58.31525 | 1859 ft | 138 kts | 293° |
| 2026-04-26 19:47 | -34.60976 | -58.32497 | 1690 ft | 138 kts | 292° |
| 2026-04-26 19:47 | -34.60800 | -58.32815 | 1613 ft | 140 kts | 293° |
| 2026-04-26 19:47 | -34.59913 | -58.34404 | 1286 ft | 132 kts | 294° |
| 2026-04-26 19:47 | -34.59405 | -58.35314 | 1090 ft | 130 kts | 294° |
| 2026-04-26 19:48 | -34.58901 | -58.36216 | 918 ft | 132 kts | 293° |
| 2026-04-26 19:48 | -34.58391 | -58.37141 | 742 ft | 129 kts | 293° |
| 2026-04-26 19:48 | -34.57872 | -58.38051 | 599 ft | 132 kts | 297° |
| 2026-04-26 19:48 | -34.57344 | -58.38971 | 447 ft | 133 kts | 296° |
| 2026-04-26 19:49 | -34.56836 | -58.39904 | 202 ft | 134 kts | 294° |
| 2026-04-26 19:49 | -34.56322 | -58.40836 | 30 ft | 127 kts | 296° |
| 2026-04-26 19:49 | -34.55924 | -58.41577 | 26 ft | 71 kts | 302° |
| 2026-04-26 19:49 | -34.55756 | -58.41872 | 26 ft | 21 kts | 304° |
| 2026-04-26 19:50 | -34.55714 | -58.41917 | 26 ft | 5 kts | 357° |
| 2026-04-26 19:50 | -34.55687 | -58.41903 | 26 ft | 2 kts | 34° |
| 2026-04-26 19:50 | -34.55675 | -58.41893 | 26 ft | 1 kts | 34° |
| 2026-04-26 19:50 | -34.55671 | -58.41888 | 26 ft | 0 kts | 48° |
| 2026-04-26 19:51 | -34.55670 | -58.41887 | 26 ft | 0 kts | 59° |
| 2026-04-26 19:51 | -34.55670 | -58.41882 | 26 ft | 2 kts | 91° |
| 2026-04-26 19:51 | -34.55681 | -58.41844 | 26 ft | 6 kts | 122° |
| 2026-04-26 19:51 | -34.55711 | -58.41790 | 26 ft | 8 kts | 124° |
| 2026-04-26 19:52 | -34.55738 | -58.41733 | 26 ft | 7 kts | 116° |
| 2026-04-26 19:52 | -34.55750 | -58.41705 | 26 ft | 2 kts | 117° |
| 2026-04-26 19:52 | -34.55769 | -58.41661 | 26 ft | 8 kts | 117° |
| 2026-04-26 19:52 | -34.55774 | -58.41594 | 26 ft | 6 kts | 50° |
| 2026-04-26 19:53 | -34.55735 | -58.41568 | 26 ft | 3 kts | 29° |
| 2026-04-26 19:53 | -34.55709 | -58.41544 | 26 ft | 4 kts | 25° |
| 2026-04-26 19:53 | -34.55671 | -58.41536 | 26 ft | 5 kts | 7° |
| 2026-04-26 19:53 | -34.55661 | -58.41534 | 26 ft | 0 kts | 8° |